createdAt,value
2023-03-07T00:00:45.349Z,12.20
2023-03-07T00:03:14.294Z,12.40
2023-03-07T00:05:42.270Z,15.82
2023-03-07T00:08:10.168Z,12.68
2023-03-07T00:10:37.989Z,13.07
2023-03-07T00:13:05.783Z,11.85
2023-03-07T00:15:33.428Z,13.07
2023-03-07T00:18:02.316Z,14.13
2023-03-07T00:20:30.044Z,12.57
2023-03-07T00:22:57.675Z,12.88
2023-03-07T00:25:25.185Z,12.75
2023-03-07T00:27:52.750Z,13.45
2023-03-07T00:30:20.579Z,12.07
2023-03-07T00:32:48.119Z,11.40
2023-03-07T00:35:17.059Z,13.05
2023-03-07T00:37:44.655Z,13.80
2023-03-07T00:40:13.278Z,13.20
2023-03-07T00:42:40.801Z,13.05
2023-03-07T00:45:09.485Z,12.52
2023-03-07T00:47:37.068Z,13.75
2023-03-07T00:50:05.422Z,12.98
2023-03-07T00:52:34.909Z,11.60
2023-03-07T00:55:02.824Z,14.55
2023-03-07T00:57:30.505Z,12.07
2023-03-07T00:59:58.178Z,10.52
2023-03-07T01:02:26.146Z,14.80
2023-03-07T01:04:54.114Z,11.65
2023-03-07T01:07:21.674Z,13.15
2023-03-07T01:09:53.253Z,12.52
2023-03-07T01:12:21.120Z,11.40
2023-03-07T01:14:51.237Z,12.95
2023-03-07T01:17:19.242Z,15.52
2023-03-07T01:19:46.780Z,13.80
2023-03-07T01:22:14.375Z,13.43
2023-03-07T01:24:42.125Z,13.95
2023-03-07T01:27:11.252Z,12.38
2023-03-07T01:29:38.914Z,13.77
2023-03-07T01:32:06.929Z,12.65
2023-03-07T01:34:34.805Z,13.70
2023-03-07T01:37:02.398Z,16.98
2023-03-07T01:39:30.568Z,14.77
2023-03-07T01:42:02.308Z,14.95
2023-03-07T01:44:32.605Z,14.25
2023-03-07T01:47:01.057Z,15.15
2023-03-07T01:49:40.667Z,12.02
2023-03-07T01:52:11.161Z,15.27
2023-03-07T01:54:48.910Z,12.93
2023-03-07T01:57:20.469Z,15.63
2023-03-07T01:59:54.643Z,14.23
2023-03-07T02:02:23.553Z,15.73
2023-03-07T02:04:55.439Z,16.15
2023-03-07T02:07:25.788Z,13.20
2023-03-07T02:09:54.801Z,14.70
2023-03-07T02:12:23.275Z,16.45
2023-03-07T02:14:53.257Z,13.70
2023-03-07T02:17:21.281Z,17.73
2023-03-07T02:20:05.613Z,14.68
2023-03-07T02:22:33.258Z,12.43
2023-03-07T02:25:04.381Z,15.38
2023-03-07T02:27:37.209Z,15.85
2023-03-07T02:30:06.266Z,14.45
2023-03-07T02:32:34.099Z,14.40
2023-03-07T02:35:01.684Z,15.00
2023-03-07T02:37:33.660Z,15.05
2023-03-07T02:40:06.456Z,14.67
2023-03-07T02:42:39.804Z,13.32
2023-03-07T02:45:13.764Z,14.90
2023-03-07T02:47:42.982Z,16.02
2023-03-07T02:50:13.510Z,15.07
2023-03-07T02:52:43.436Z,14.38
2023-03-07T02:55:11.819Z,15.60
2023-03-07T02:57:46.229Z,12.85
2023-03-07T03:00:14.641Z,12.18
2023-03-07T03:02:42.353Z,13.75
2023-03-07T03:05:10.450Z,14.15
2023-03-07T03:07:38.238Z,12.43
2023-03-07T03:10:06.998Z,15.88
2023-03-07T03:12:34.859Z,13.75
2023-03-07T03:15:29.521Z,13.80
2023-03-07T03:17:57.889Z,14.68
2023-03-07T03:20:25.808Z,15.63
2023-03-07T03:22:53.875Z,13.60
2023-03-07T03:25:23.111Z,13.00
2023-03-07T03:27:51.171Z,12.80
2023-03-07T03:30:19.304Z,12.70
2023-03-07T03:32:48.327Z,13.32
2023-03-07T03:35:18.325Z,13.80
2023-03-07T03:37:47.281Z,13.13
2023-03-07T03:40:17.914Z,12.95
2023-03-07T03:42:47.414Z,13.30
2023-03-07T03:45:18.307Z,11.95
2023-03-07T03:47:48.357Z,12.73
2023-03-07T03:50:18.979Z,13.60
2023-03-07T03:52:46.562Z,13.75
2023-03-07T03:55:14.156Z,13.35
2023-03-07T03:57:42.172Z,13.20
2023-03-07T04:00:14.652Z,11.52
2023-03-07T04:02:42.443Z,14.93
2023-03-07T04:05:14.289Z,14.80
2023-03-07T04:07:43.245Z,14.38
2023-03-07T04:10:11.973Z,11.18
2023-03-07T04:12:39.711Z,14.02
2023-03-07T04:15:08.687Z,12.80
2023-03-07T04:17:37.034Z,12.90
2023-03-07T04:20:07.615Z,14.00
2023-03-07T04:22:35.425Z,11.80
2023-03-07T04:25:04.889Z,13.85
2023-03-07T04:27:34.243Z,11.48
2023-03-07T04:30:01.813Z,13.18
2023-03-07T04:32:29.667Z,10.88
2023-03-07T04:34:57.457Z,11.98
2023-03-07T04:37:25.068Z,13.90
2023-03-07T04:39:52.695Z,11.73
2023-03-07T04:42:22.515Z,13.65
2023-03-07T04:44:50.139Z,10.93
2023-03-07T04:47:19.091Z,9.43
2023-03-07T04:49:46.760Z,11.98
2023-03-07T04:52:15.364Z,12.65
2023-03-07T04:54:43.138Z,11.85
2023-03-07T04:57:10.896Z,11.10
2023-03-07T04:59:40.338Z,11.63
2023-03-07T05:02:12.576Z,11.77
2023-03-07T05:04:40.521Z,15.18
2023-03-07T05:07:08.942Z,12.10
2023-03-07T05:09:36.762Z,9.55
2023-03-07T05:12:05.173Z,13.20
2023-03-07T05:14:32.871Z,12.05
2023-03-07T05:17:01.776Z,12.35
2023-03-07T05:19:30.573Z,10.25
2023-03-07T05:21:58.893Z,9.05
2023-03-07T05:24:27.061Z,13.70
2023-03-07T05:26:55.076Z,25.15
2023-03-07T05:29:22.711Z,14.05
2023-03-07T05:31:50.245Z,12.23
2023-03-07T05:34:19.178Z,13.48
2023-03-07T05:36:48.014Z,10.57
2023-03-07T05:39:16.788Z,11.38
2023-03-07T05:41:44.370Z,12.18
2023-03-07T05:44:13.232Z,10.43
2023-03-07T05:46:40.782Z,9.75
2023-03-07T05:49:08.363Z,10.07
2023-03-07T05:51:37.255Z,9.98
2023-03-07T05:54:05.277Z,9.55
2023-03-07T05:56:33.135Z,10.05
2023-03-07T05:59:00.773Z,11.07
2023-03-07T06:01:28.681Z,10.55
2023-03-07T06:03:57.114Z,10.48
2023-03-07T06:06:24.688Z,10.07
2023-03-07T06:08:53.573Z,10.85
2023-03-07T06:11:21.350Z,9.43
2023-03-07T06:13:49.580Z,10.73
2023-03-07T06:16:17.109Z,11.38
2023-03-07T06:18:45.162Z,10.90
2023-03-07T06:21:19.354Z,9.57
2023-03-07T06:23:47.275Z,11.10
2023-03-07T06:26:20.515Z,11.10
2023-03-07T06:28:52.124Z,8.63
2023-03-07T06:31:21.129Z,9.05
2023-03-07T06:33:49.103Z,8.88
2023-03-07T06:36:19.979Z,8.38
2023-03-07T06:38:51.651Z,9.25
2023-03-07T06:41:20.694Z,10.32
2023-03-07T06:43:52.520Z,7.88
2023-03-07T06:46:24.353Z,10.18
2023-03-07T06:48:52.095Z,8.60
2023-03-07T06:51:21.059Z,10.73
2023-03-07T06:53:49.523Z,8.02
2023-03-07T06:56:17.275Z,7.93
2023-03-07T06:58:46.853Z,12.23
2023-03-07T07:01:17.858Z,8.65
2023-03-07T07:03:46.930Z,8.73
2023-03-07T07:06:14.550Z,9.35
2023-03-07T07:08:42.169Z,10.85
2023-03-07T07:11:10.925Z,9.18
2023-03-07T07:13:39.466Z,11.20
2023-03-07T07:16:09.726Z,9.55
2023-03-07T07:18:39.348Z,8.98
2023-03-07T07:21:08.830Z,11.10
2023-03-07T07:23:36.567Z,7.53
2023-03-07T07:26:05.637Z,10.73
2023-03-07T07:28:34.012Z,12.23
2023-03-07T07:31:01.656Z,10.20
2023-03-07T07:33:32.763Z,10.35
2023-03-07T07:36:00.478Z,11.02
2023-03-07T07:38:28.087Z,8.50
2023-03-07T07:40:56.121Z,12.48
2023-03-07T07:43:24.827Z,10.77
2023-03-07T07:46:04.910Z,9.35
2023-03-07T07:48:34.492Z,10.80
2023-03-07T07:51:02.962Z,9.10
2023-03-07T07:53:31.856Z,8.82
2023-03-07T07:55:59.605Z,8.07
2023-03-07T07:58:27.346Z,8.65
2023-03-07T08:00:55.701Z,8.45
2023-03-07T08:03:23.292Z,7.95
2023-03-07T08:05:52.304Z,7.93
2023-03-07T08:08:20.429Z,9.40
2023-03-07T08:10:48.788Z,8.68
2023-03-07T08:17:02.122Z,8.27
2023-03-07T08:19:29.988Z,7.18
2023-03-07T08:21:59.436Z,8.20
2023-03-07T08:24:39.908Z,9.93
2023-03-07T08:27:08.321Z,8.32
2023-03-07T08:29:36.078Z,8.20
2023-03-07T08:32:03.746Z,8.70
2023-03-07T08:34:34.020Z,9.65
2023-03-07T08:37:03.334Z,6.65
2023-03-07T08:39:30.838Z,7.63
2023-03-07T08:41:59.379Z,7.53
2023-03-07T08:44:27.164Z,7.97
2023-03-07T08:46:54.771Z,7.55
2023-03-07T08:49:22.323Z,8.38
2023-03-07T08:51:50.230Z,7.40
2023-03-07T08:54:19.169Z,7.05
2023-03-07T08:56:46.705Z,7.18
2023-03-07T08:59:14.276Z,9.00
2023-03-07T09:01:41.884Z,10.23
2023-03-07T09:04:09.580Z,6.43
2023-03-07T09:06:37.162Z,7.50
2023-03-07T09:09:05.908Z,11.27
2023-03-07T09:11:34.797Z,8.98
2023-03-07T09:14:02.388Z,8.40
2023-03-07T09:16:29.996Z,7.97
2023-03-07T09:18:57.583Z,6.55
2023-03-07T09:21:25.163Z,7.10
2023-03-07T09:23:52.840Z,8.55
2023-03-07T09:26:22.970Z,7.32
2023-03-07T09:28:51.908Z,7.93
2023-03-07T09:31:19.651Z,7.97
2023-03-07T09:33:47.374Z,7.82
2023-03-07T09:36:18.248Z,6.80
2023-03-07T09:38:46.892Z,8.40
2023-03-07T09:41:31.623Z,6.97
2023-03-07T09:44:09.385Z,11.23
2023-03-07T09:47:37.224Z,9.88
2023-03-07T09:50:13.067Z,7.38
2023-03-07T09:52:42.382Z,9.63
2023-03-07T09:55:13.824Z,7.63
2023-03-07T09:57:50.092Z,8.85
2023-03-07T10:00:23.258Z,6.47
2023-03-07T10:02:55.352Z,10.60
2023-03-07T10:05:31.448Z,7.57
2023-03-07T10:08:01.292Z,7.90
2023-03-07T10:10:37.752Z,6.72
2023-03-07T10:13:23.452Z,7.43
2023-03-07T10:15:57.324Z,8.60
2023-03-07T10:18:47.049Z,7.30
2023-03-07T10:21:25.037Z,8.00
2023-03-07T10:24:18.143Z,8.95
2023-03-07T10:26:51.973Z,7.83
2023-03-07T10:29:20.776Z,8.45
2023-03-07T10:31:56.261Z,8.93
2023-03-07T10:34:28.373Z,7.07
2023-03-07T10:37:08.933Z,8.45
2023-03-07T10:39:44.407Z,8.65
2023-03-07T10:42:13.794Z,6.88
2023-03-07T10:44:41.818Z,6.38
2023-03-07T10:47:19.678Z,7.30
2023-03-07T10:49:48.921Z,8.38
2023-03-07T10:52:29.785Z,7.50
2023-03-07T10:55:33.731Z,7.88
2023-03-07T10:58:16.858Z,8.45
2023-03-07T11:00:45.361Z,8.90
2023-03-07T11:03:35.289Z,10.35
2023-03-07T11:06:26.875Z,15.32
2023-03-07T11:08:56.028Z,8.13
2023-03-07T11:11:25.132Z,9.60
2023-03-07T11:14:09.263Z,13.40
2023-03-07T11:16:42.419Z,9.40
2023-03-07T11:19:31.034Z,6.53
2023-03-07T11:22:01.102Z,7.15
2023-03-07T11:24:30.551Z,7.88
2023-03-07T11:27:00.035Z,6.55
2023-03-07T11:29:29.290Z,9.65
2023-03-07T11:32:11.346Z,6.82
2023-03-07T11:34:44.943Z,5.82
2023-03-07T11:37:26.648Z,7.32
2023-03-07T11:40:06.252Z,5.93
2023-03-07T11:42:39.503Z,6.03
2023-03-07T11:45:17.814Z,6.72
2023-03-07T11:47:52.991Z,5.38
2023-03-07T11:50:26.472Z,7.05
2023-03-07T11:53:15.289Z,7.05
2023-03-07T11:55:50.013Z,5.72
2023-03-07T11:58:34.063Z,6.20
2023-03-07T12:01:15.075Z,7.00
2023-03-07T12:04:14.255Z,10.75
2023-03-07T12:06:52.967Z,8.48
2023-03-07T12:09:29.819Z,7.68
2023-03-07T12:12:29.903Z,8.18
2023-03-07T12:15:06.822Z,8.40
2023-03-07T12:17:47.712Z,7.85
2023-03-07T12:20:36.670Z,7.47
2023-03-07T12:23:11.692Z,7.32
2023-03-07T12:25:42.867Z,6.70
2023-03-07T12:28:18.709Z,8.38
2023-03-07T12:30:56.217Z,7.68
2023-03-07T12:33:32.039Z,7.43
2023-03-07T12:36:04.166Z,7.97
2023-03-07T12:38:40.453Z,6.75
2023-03-07T12:41:21.791Z,7.68
2023-03-07T12:43:55.074Z,7.30
2023-03-07T12:46:32.957Z,8.65
2023-03-07T12:49:09.717Z,7.20
2023-03-07T12:51:41.909Z,8.40
2023-03-07T12:54:16.126Z,6.57
2023-03-07T12:56:50.751Z,8.73
2023-03-07T12:59:20.558Z,8.95
2023-03-07T13:01:51.667Z,8.27
2023-03-07T13:04:24.181Z,6.95
2023-03-07T13:06:56.608Z,9.37
2023-03-07T13:09:27.864Z,6.30
2023-03-07T13:12:32.694Z,7.03
2023-03-07T13:15:01.684Z,7.60
2023-03-07T13:18:01.439Z,6.82
2023-03-07T13:21:06.919Z,8.38
2023-03-07T13:23:34.733Z,8.05
2023-03-07T13:26:07.577Z,7.50
2023-03-07T13:28:51.216Z,6.60
2023-03-07T13:33:54.696Z,6.43
2023-03-07T13:36:34.464Z,8.82
2023-03-07T13:39:02.429Z,6.38
2023-03-07T13:41:48.354Z,7.85
2023-03-07T13:44:30.177Z,7.03
2023-03-07T13:47:02.703Z,7.50
2023-03-07T13:49:44.865Z,7.47
2023-03-07T13:52:42.865Z,6.40
2023-03-07T13:55:25.034Z,8.23
2023-03-07T13:57:58.439Z,12.75
2023-03-07T14:02:58.590Z,12.70
2023-03-07T14:05:26.723Z,6.82
2023-03-07T14:07:54.772Z,7.53
2023-03-07T14:10:26.227Z,7.53
2023-03-07T14:13:25.483Z,12.30
2023-03-07T14:16:06.549Z,7.35
2023-03-07T14:18:51.075Z,8.52
2023-03-07T14:21:29.529Z,6.40
2023-03-07T14:24:23.337Z,7.75
2023-03-07T14:26:54.019Z,11.25
2023-03-07T14:29:24.983Z,9.35
2023-03-07T14:31:54.069Z,6.40
2023-03-07T14:34:28.110Z,7.70
2023-03-07T14:36:57.799Z,7.65
2023-03-07T14:39:27.962Z,8.98
2023-03-07T14:42:08.528Z,6.75
2023-03-07T14:45:07.662Z,8.05
2023-03-07T14:47:51.397Z,9.77
2023-03-07T14:50:21.069Z,12.73
2023-03-07T14:52:50.412Z,6.15
2023-03-07T14:55:20.758Z,8.75
2023-03-07T14:57:52.878Z,7.65
2023-03-07T15:00:28.370Z,7.75
2023-03-07T15:02:58.618Z,6.13
2023-03-07T15:05:31.717Z,10.57
2023-03-07T15:07:59.781Z,8.82
2023-03-07T15:10:31.240Z,6.68
2023-03-07T15:12:58.960Z,5.57
2023-03-07T15:15:32.749Z,7.50
2023-03-07T15:18:05.685Z,6.65
2023-03-07T15:20:34.523Z,6.00
2023-03-07T15:23:05.091Z,8.27
2023-03-07T15:25:33.540Z,7.68
2023-03-07T15:28:04.312Z,6.80
2023-03-07T15:30:35.512Z,9.18
2023-03-07T15:33:13.574Z,6.32
2023-03-07T15:35:41.337Z,7.07
2023-03-07T15:38:16.168Z,7.18
2023-03-07T15:40:44.146Z,6.28
2023-03-07T15:43:18.198Z,5.30
2023-03-07T15:46:01.636Z,7.53
2023-03-07T15:48:36.972Z,9.05
2023-03-07T15:51:07.210Z,7.93
2023-03-07T15:53:37.482Z,8.88
2023-03-07T15:56:10.176Z,6.50
2023-03-07T15:58:43.475Z,7.93
2023-03-07T16:01:21.311Z,7.30
2023-03-07T16:03:51.474Z,11.02
2023-03-07T16:06:35.468Z,13.90
2023-03-07T16:09:04.201Z,7.65
2023-03-07T16:11:32.152Z,8.38
2023-03-07T16:14:00.413Z,9.90
2023-03-07T16:16:31.296Z,7.82
2023-03-07T16:18:59.093Z,7.43
2023-03-07T16:21:27.306Z,8.05
2023-03-07T16:23:54.980Z,6.82
2023-03-07T16:26:24.161Z,6.55
2023-03-07T16:28:53.165Z,7.07
2023-03-07T16:31:21.186Z,7.45
2023-03-07T16:33:50.282Z,6.53
2023-03-07T16:36:18.562Z,8.35
2023-03-07T16:38:47.500Z,7.53
2023-03-07T16:41:21.057Z,6.63
2023-03-07T16:43:54.236Z,8.63
2023-03-07T16:46:23.156Z,8.82
2023-03-07T16:48:52.245Z,9.13
2023-03-07T16:51:21.600Z,9.88
2023-03-07T16:53:51.053Z,8.85
2023-03-07T16:56:26.189Z,7.63
2023-03-07T16:58:54.591Z,9.30
2023-03-07T17:01:22.243Z,6.57
2023-03-07T17:03:49.942Z,7.47
2023-03-07T17:06:25.281Z,8.82
2023-03-07T17:08:55.289Z,8.55
2023-03-07T17:11:25.371Z,10.40
2023-03-07T17:13:55.046Z,7.40
2023-03-07T17:16:22.925Z,6.90
2023-03-07T17:18:50.528Z,7.30
2023-03-07T17:21:21.528Z,7.07
2023-03-07T17:23:50.039Z,6.30
2023-03-07T17:26:23.007Z,8.70
2023-03-07T17:28:51.529Z,6.25
2023-03-07T17:31:19.128Z,6.38
2023-03-07T17:33:47.168Z,11.20
2023-03-07T17:36:14.772Z,7.03
2023-03-07T17:38:43.802Z,7.93
2023-03-07T17:41:11.386Z,8.52
2023-03-07T17:43:39.335Z,7.55
2023-03-07T17:46:10.006Z,7.00
2023-03-07T17:48:38.239Z,8.48
2023-03-07T17:51:09.105Z,7.05
2023-03-07T17:53:37.068Z,6.82
2023-03-07T17:56:10.455Z,8.25
2023-03-07T18:01:07.724Z,10.45
2023-03-07T18:03:36.228Z,9.20
2023-03-07T18:06:04.083Z,6.82
2023-03-07T18:08:32.998Z,8.13
2023-03-07T18:11:04.377Z,10.13
2023-03-07T18:13:33.786Z,6.88
2023-03-07T18:20:10.952Z,6.10
2023-03-07T18:22:39.039Z,6.25
2023-03-07T18:25:09.099Z,6.70
2023-03-07T18:27:36.730Z,6.57
2023-03-07T18:30:06.820Z,8.38
2023-03-07T18:32:34.983Z,6.70
2023-03-07T18:35:02.646Z,6.15
2023-03-07T18:37:30.248Z,5.22
2023-03-07T18:39:57.825Z,6.32
2023-03-07T18:42:25.402Z,6.38
2023-03-07T18:44:52.954Z,5.70
2023-03-07T18:47:21.982Z,12.27
2023-03-07T18:49:51.042Z,7.88
2023-03-07T18:52:18.990Z,7.32
2023-03-07T18:54:48.776Z,5.80
2023-03-07T18:57:16.392Z,7.50
2023-03-07T18:59:43.953Z,6.22
2023-03-07T19:02:11.865Z,7.35
2023-03-07T19:04:40.844Z,6.93
2023-03-07T19:07:08.537Z,9.07
2023-03-07T19:09:36.144Z,7.45
2023-03-07T19:12:03.839Z,6.55
2023-03-07T19:14:33.081Z,5.97
2023-03-07T19:17:00.879Z,6.97
2023-03-07T19:19:29.617Z,6.85
2023-03-07T19:21:59.625Z,5.97
2023-03-07T19:24:29.477Z,8.20
2023-03-07T19:26:57.741Z,9.40
2023-03-07T19:29:25.422Z,7.40
2023-03-07T19:31:53.194Z,6.72
2023-03-07T19:34:20.879Z,7.40
2023-03-07T19:36:48.679Z,7.07
2023-03-07T19:39:20.349Z,8.93
2023-03-07T19:41:48.902Z,5.78
2023-03-07T19:44:17.072Z,6.40
2023-03-07T19:46:46.894Z,7.25
2023-03-07T19:49:14.530Z,7.78
2023-03-07T19:51:42.292Z,5.65
2023-03-07T19:54:13.788Z,6.93
2023-03-07T19:56:44.946Z,7.28
2023-03-07T19:59:13.816Z,7.25
2023-03-07T20:01:43.911Z,5.60
2023-03-07T20:04:13.122Z,7.22
2023-03-07T20:06:43.280Z,7.60
2023-03-07T20:09:13.218Z,5.22
2023-03-07T20:11:43.988Z,8.15
2023-03-07T20:14:13.176Z,7.82
2023-03-07T20:16:41.713Z,5.82
2023-03-07T20:19:10.767Z,5.68
2023-03-07T20:21:40.134Z,5.97
2023-03-07T20:24:09.146Z,8.98
2023-03-07T20:26:38.897Z,7.35
2023-03-07T20:29:09.534Z,5.25
2023-03-07T20:31:40.345Z,5.90
2023-03-07T20:34:08.873Z,5.20
2023-03-07T20:36:39.094Z,6.70
2023-03-07T20:39:13.098Z,5.43
2023-03-07T20:41:42.640Z,5.85
2023-03-07T20:44:14.372Z,5.55
2023-03-07T20:46:43.060Z,5.32
2023-03-07T20:49:14.027Z,5.85
2023-03-07T20:51:42.746Z,8.95
2023-03-07T20:54:14.309Z,4.97
2023-03-07T20:56:42.985Z,6.75
2023-03-07T20:59:15.302Z,5.90
2023-03-07T21:01:43.830Z,5.90
2023-03-07T21:04:17.570Z,6.68
2023-03-07T21:06:45.931Z,5.68
2023-03-07T21:09:15.002Z,5.97
2023-03-07T21:11:45.971Z,11.10
2023-03-07T21:14:16.244Z,8.18
2023-03-07T21:16:44.450Z,8.00
2023-03-07T21:19:12.641Z,7.18
2023-03-07T21:21:40.954Z,6.85
2023-03-07T21:24:09.763Z,5.35
2023-03-07T21:26:37.405Z,6.10
2023-03-07T21:29:05.676Z,6.57
2023-03-07T21:31:36.110Z,7.18
2023-03-07T21:34:06.193Z,5.97
2023-03-07T21:36:34.490Z,5.95
2023-03-07T21:39:04.034Z,6.63
2023-03-07T21:41:31.652Z,5.70
2023-03-07T21:43:59.919Z,6.95
2023-03-07T21:46:27.622Z,5.75
2023-03-07T21:48:59.407Z,5.50
2023-03-07T21:51:27.030Z,5.97
2023-03-07T21:53:54.610Z,6.05
2023-03-07T21:56:23.891Z,5.10
2023-03-07T21:58:52.692Z,5.88
2023-03-07T22:01:22.897Z,7.72
2023-03-07T22:03:52.496Z,6.38
2023-03-07T22:06:22.557Z,6.13
2023-03-07T22:08:50.204Z,5.85
2023-03-07T22:11:17.876Z,7.25
2023-03-07T22:13:45.443Z,6.05
2023-03-07T22:16:14.991Z,9.90
2023-03-07T22:18:42.766Z,8.07
2023-03-07T22:21:13.587Z,6.05
2023-03-07T22:23:42.916Z,5.97
2023-03-07T22:26:16.249Z,5.70
2023-03-07T22:28:47.184Z,6.57
2023-03-07T22:31:15.004Z,7.63
2023-03-07T22:33:42.869Z,6.80
2023-03-07T22:36:13.686Z,5.20
2023-03-07T22:38:43.049Z,7.40
2023-03-07T22:41:13.525Z,7.43
2023-03-07T22:43:41.224Z,6.25
2023-03-07T22:46:09.646Z,6.18
2023-03-07T22:48:37.417Z,7.03
2023-03-07T22:51:05.485Z,6.70
2023-03-07T22:53:35.472Z,8.82
2023-03-07T22:56:04.535Z,8.32
2023-03-07T22:58:32.117Z,7.55
2023-03-07T23:00:59.737Z,7.18
2023-03-07T23:03:27.349Z,8.50
2023-03-07T23:06:00.297Z,7.97
2023-03-07T23:08:27.891Z,11.57
2023-03-07T23:11:01.236Z,8.60
2023-03-07T23:15:58.266Z,11.68
2023-03-07T23:18:26.037Z,8.27
2023-03-07T23:20:53.680Z,7.70
2023-03-07T23:23:21.382Z,9.68
2023-03-07T23:25:48.973Z,8.32
2023-03-07T23:28:16.568Z,8.70
2023-03-07T23:30:45.535Z,10.68
2023-03-07T23:33:13.354Z,8.32
2023-03-07T23:35:40.959Z,8.85
2023-03-07T23:38:08.684Z,8.30
2023-03-07T23:40:37.699Z,7.55
2023-03-07T23:43:06.562Z,10.52
2023-03-07T23:45:34.396Z,10.85
2023-03-07T23:48:03.315Z,8.40
2023-03-07T23:50:30.978Z,9.10
2023-03-07T23:52:58.538Z,8.90
2023-03-07T23:55:26.050Z,11.13
2023-03-07T23:57:53.626Z,8.95
